Latest Weather Observations for Julia Creek

IDQ60801

Issued at 11:35 am EST Thursday 24 July 2014 (issued every 30 minutes, with the page automatically refreshed every 10 minutes)

About weather observations | Map of weather stations | Latest weather observations for QLD | Other Formats
Station Details ID: 029058 Name: JULIA CREEK AIRPORT Lat: -20.67 Lon: 141.72 Height: 122.5 m
Data from the previous 72 hours. | See also: Recent months at Julia Creek
Date/Time
EST
Temp
°C
App
Temp
°C
Dew
Point
Rel
Hum
%
Delta-T
°C
Wind Press
QNH
hPa
Press
MSL
hPa
Rain
since 9 am
mm
Dir
 
Spd
km/h
Gust
km/h
Spd
kts
Gust
kts
24/11:30am 26.1 22.6 7.2 30 10.0 N 15 22 8 12 1017.4 - 0.0
24/11:00am 26.2 23.1 7.3 30 10.0 N 13 20 7 11 1017.8 1017.6 0.0
24/10:30am 25.0 22.4 7.6 33 9.2 N 11 19 6 10 1017.8 - 0.0
24/10:00am 24.1 22.1 7.3 34 8.8 N 7 13 4 7 1017.6 1017.4 0.0
24/09:30am 22.6 20.1 6.4 35 8.3 NNE 9 13 5 7 1017.7 - 0.0
24/09:00am 20.1 16.5 2.9 32 8.1 NE 11 15 6 8 1017.3 1017.1 0.0
24/08:30am 17.7 14.6 -0.1 30 7.7 NNE 6 17 3 9 1017.0 - 0.0
24/08:00am 14.0 10.4 -3.3 30 6.8 NE 6 7 3 4 1016.4 1016.2 0.0
24/07:30am 11.6 7.7 -4.5 32 6.0 NE 7 9 4 5 1016.0 - 0.0
24/07:00am 10.3 5.6 -4.9 34 5.5 NE 11 13 6 7 1015.6 1015.3 0.0
24/06:30am 9.8 5.0 -5.7 33 5.5 NE 11 13 6 7 1015.4 - 0.0
24/06:00am 10.4 6.4 -6.0 31 5.8 ENE 7 9 4 5 1015.0 1014.7 0.0
24/05:30am 11.4 7.2 -4.3 33 5.8 ENE 9 11 5 6 1014.8 - 0.0
24/05:00am 10.6 6.2 -6.2 30 5.9 E 9 13 5 7 1014.7 1014.4 0.0
24/04:30am 10.7 4.4 -6.1 30 5.9 N 19 24 10 13 1014.6 - 0.0
24/04:00am 9.3 5.3 -7.8 29 5.7 ESE 6 9 3 5 1014.1 1013.8 0.0
24/03:30am 9.3 4.3 -7.8 29 5.7 SSW 11 17 6 9 1014.0 - 0.0
24/03:00am 10.8 6.6 -7.4 27 6.2 E 7 7 4 4 1013.8 1013.6 0.0
24/02:30am 10.6 7.3 -8.1 26 6.3 E 2 6 1 3 1013.8 - 0.0
24/02:00am 11.2 8.3 -7.6 26 6.5 CALM 0 0 0 0 1013.8 1013.6 0.0
24/01:30am 12.2 9.1 -6.2 27 6.6 E 2 4 1 2 1014.2 - 0.0
24/01:00am 12.1 9.2 -7.8 24 6.9 CALM 0 0 0 0 1014.4 1014.1 0.0
24/12:30am 12.0 9.1 -8.5 23 7.0 CALM 0 2 0 1 1014.4 - 0.0
24/12:00am 12.6 9.8 -7.4 24 7.0 CALM 0 2 0 1 1014.4 1014.1 0.0
 
Date/Time
EST
Temp
°C
App
Temp
°C
Dew
Point
Rel
Hum
%
Delta-T
°C
Wind Press
QNH
hPa
Press
MSL
hPa
Rain
since 9 am
mm
Dir
 
Spd
km/h
Gust
km/h
Spd
kts
Gust
kts
23/11:30pm 12.7 9.1 -7.9 23 7.2 NE 4 4 2 2 1014.6 - 0.0
23/11:00pm 13.3 9.9 -5.3 27 6.9 NE 4 6 2 3 1014.8 1014.5 0.0
23/10:30pm 14.3 10.9 -4.9 26 7.3 NE 4 4 2 2 1015.0 - 0.0
23/10:00pm 14.4 11.7 -6.4 23 7.6 CALM 0 2 0 1 1015.2 1014.9 0.0
23/09:30pm 17.2 13.8 -2.4 26 8.1 N 6 6 3 3 1015.1 - 0.0
23/09:00pm 17.4 15.0 -3.4 24 8.4 CALM 0 0 0 0 1015.1 1014.8 0.0
23/08:30pm 18.1 15.5 -5.2 20 9.1 CALM 0 0 0 0 1015.0 - 0.0
23/08:00pm 18.5 15.9 -4.9 20 9.3 CALM 0 0 0 0 1014.9 1014.6 0.0
23/07:30pm 19.7 15.9 -6.0 17 10.1 W 6 6 3 3 1014.5 - 0.0
23/07:00pm 22.5 18.9 -3.7 17 11.1 WNW 6 6 3 3 1014.2 1013.9 0.0
23/06:30pm 23.8 20.2 -3.5 16 11.7 NNW 6 7 3 4 1013.8 - 0.0
23/06:00pm 25.8 21.5 -4.7 13 13.0 NW 9 13 5 7 1014.0 1013.7 0.0
23/05:30pm 28.1 23.3 -2.9 13 13.9 W 13 19 7 10 1013.8 - 0.0
23/05:00pm 28.8 24.7 -3.4 12 14.4 WNW 9 17 5 9 1013.6 1013.4 0.0
23/04:30pm 29.3 23.9 -4.2 11 14.9 W 15 22 8 12 1013.5 - 0.0
23/04:00pm 29.6 24.3 -3.9 11 15.0 W 15 22 8 12 1013.4 1013.2 0.0
23/03:30pm 29.6 24.6 -3.9 11 15.0 WNW 13 20 7 11 1013.4 - 0.0
23/03:00pm 30.1 24.8 -3.6 11 15.2 W 15 22 8 12 1013.5 1013.3 0.0
23/02:30pm 29.5 23.7 -1.8 13 14.5 W 19 22 10 12 1013.8 - 0.0
23/02:00pm 28.7 24.2 -0.5 15 13.8 NW 13 24 7 13 1014.2 1013.9 0.0
23/01:30pm 28.6 23.6 1.2 17 13.3 WNW 17 24 9 13 1014.5 - 0.0
23/01:00pm 28.5 24.4 4.1 21 12.4 NNW 15 28 8 15 1014.9 1014.6 0.0
23/12:30pm 27.9 23.5 4.9 23 11.9 NW 17 24 9 13 1015.4 - 0.0
23/12:00pm 26.8 23.1 6.2 27 10.8 NW 15 22 8 12 1016.0 1015.7 0.0
23/11:30am 25.6 22.4 6.8 30 9.9 N 13 19 7 10 1016.5 - 0.0
23/11:00am 24.2 19.9 6.9 33 9.0 N 19 24 10 13 1017.0 1016.8 0.0
23/10:30am 23.2 18.8 6.5 34 8.6 N 19 26 10 14 1017.4 - 0.0
23/10:00am 21.0 17.0 5.0 35 7.9 N 15 20 8 11 1017.7 1017.5 0.0
23/09:30am 19.2 15.0 1.7 31 8.0 NE 13 19 7 10 1017.8 - 0.0
23/09:00am 15.7 11.0 -4.8 24 7.9 E 11 15 6 8 1017.9 1017.7 0.0
23/08:30am 13.4 7.8 -6.7 24 7.2 ESE 15 19 8 10 1017.8 - 0.0
23/08:00am 10.6 5.1 -9.1 24 6.5 ESE 13 19 7 10 1017.5 1017.3 0.0
23/07:30am 8.6 3.1 -10.3 25 5.9 ESE 13 15 7 8 1017.2 - 0.0
23/07:00am 7.9 2.3 -10.9 25 5.7 SE 13 15 7 8 1016.9 1016.7 0.0
23/06:30am 7.7 2.1 -11.1 25 5.7 SE 13 15 7 8 1016.6 - 0.0
23/06:00am 7.0 1.8 -11.2 26 5.4 SE 11 11 6 6 1016.3 1016.1 0.0
23/05:30am 7.5 2.6 -11.2 25 5.6 SE 9 9 5 5 1016.0 - 0.0
23/05:00am 8.6 3.4 -11.3 23 6.0 SE 11 13 6 7 1015.8 1015.5 0.0
23/04:30am 9.2 4.4 -10.8 23 6.2 SSE 9 13 5 7 1015.6 - 0.0
23/04:00am 9.7 4.1 -10.4 23 6.3 SE 13 15 7 8 1015.6 1015.3 0.0
23/03:30am 9.6 4.0 -10.5 23 6.3 SE 13 15 7 8 1015.7 - 0.0
23/03:00am 9.3 3.7 -10.7 23 6.2 SE 13 15 7 8 1016.0 1015.7 0.0
23/02:30am 9.1 3.5 -11.5 22 6.3 SSE 13 15 7 8 1016.1 - 0.0
23/02:00am 9.2 3.6 -11.4 22 6.3 SE 13 13 7 7 1016.2 1016.0 0.0
23/01:30am 9.4 3.8 -11.2 22 6.3 SE 13 15 7 8 1016.2 - 0.0
23/01:00am 9.2 3.5 -12.0 21 6.4 SE 13 15 7 8 1016.3 1016.1 0.0
23/12:30am 10.0 4.3 -11.9 20 6.7 SE 13 13 7 7 1016.5 - 0.0
23/12:00am 10.9 5.3 -11.1 20 6.9 SSE 13 13 7 7 1016.5 1016.3 0.0
 
Date/Time
EST
Temp
°C
App
Temp
°C
Dew
Point
Rel
Hum
%
Delta-T
°C
Wind Press
QNH
hPa
Press
MSL
hPa
Rain
since 9 am
mm
Dir
 
Spd
km/h
Gust
km/h
Spd
kts
Gust
kts
22/11:30pm 10.8 5.2 -11.2 20 6.9 SSE 13 15 7 8 1016.6 - 0.0
22/11:00pm 11.6 6.4 -11.2 19 7.2 SSE 11 13 6 7 1016.7 1016.5 0.0
22/10:30pm 11.7 6.1 -11.1 19 7.3 SSE 13 13 7 7 1016.8 - 0.0
22/10:00pm 13.2 7.6 -11.3 17 7.9 SSE 13 15 7 8 1016.7 1016.5 0.0
22/09:30pm 15.1 9.2 -10.5 16 8.7 SSE 15 17 8 9 1016.6 - 0.0
22/09:00pm 16.2 10.3 -9.6 16 9.0 SSE 15 19 8 10 1016.7 1016.5 0.0
22/08:30pm 15.9 10.0 -9.9 16 8.9 SSE 15 17 8 9 1016.6 - 0.0
22/08:00pm 17.3 11.5 -8.7 16 9.4 SSE 15 19 8 10 1016.4 1016.2 0.0
22/07:30pm 18.2 12.4 -8.8 15 9.8 SSE 15 17 8 9 1016.3 - 0.0
22/07:00pm 19.7 13.9 -8.5 14 10.5 SSE 15 19 8 10 1016.1 1015.9 0.0
22/06:30pm 19.9 14.0 -9.3 13 10.7 SSE 15 15 8 8 1015.9 - 0.0
22/06:00pm 24.6 19.2 -9.0 10 13.1 SSE 13 17 7 9 1015.9 1015.6 0.0
22/05:30pm 26.7 20.5 -8.8 9 14.2 SSE 17 24 9 13 1015.7 - 0.0
22/05:00pm 27.6 21.8 -8.1 9 14.5 SSE 15 24 8 13 1015.5 1015.2 0.0
22/04:30pm 27.8 22.1 -7.9 9 14.6 SE 15 24 8 13 1015.5 - 0.0
22/04:00pm 28.2 22.1 -7.6 9 14.8 SE 17 26 9 14 1015.4 1015.1 0.0
22/03:30pm 28.1 22.4 -7.7 9 14.8 ESE 15 24 8 13 1015.6 - 0.0
22/03:00pm 27.7 22.7 -8.0 9 14.6 ESE 11 20 6 11 1015.8 1015.5 0.0
22/02:30pm 27.7 22.0 -8.0 9 14.6 SE 15 22 8 12 1016.1 - 0.0
22/02:00pm 27.8 21.7 -7.9 9 14.6 SE 17 24 9 13 1016.5 1016.3 0.0
22/01:30pm 27.8 21.1 -7.9 9 14.6 SE 20 28 11 15 1016.9 - 0.0
22/01:00pm 27.0 20.8 -8.5 9 14.3 ESE 17 30 9 16 1017.7 1017.5 0.0
22/12:30pm 27.0 20.1 -5.9 11 13.9 ESE 22 33 12 18 1018.3 - 0.0
22/12:00pm 26.1 19.6 -5.5 12 13.3 ESE 20 32 11 17 1019.0 1018.8 0.0
22/11:30am 25.2 19.1 -4.2 14 12.6 SE 19 24 10 13 1019.6 - 0.0
22/11:00am 24.0 17.9 -4.2 15 11.9 SE 19 26 10 14 1020.1 1019.9 0.0
22/10:30am 22.1 16.3 -4.9 16 11.1 SE 17 24 9 13 1020.4 - 0.0
22/10:00am 20.5 14.6 -6.1 16 10.5 SE 17 20 9 11 1020.6 1020.4 0.0
22/09:30am 18.3 11.8 -7.9 16 9.7 SE 19 22 10 12 1020.6 - 0.0
22/09:00am 16.7 10.1 -9.2 16 9.2 SE 19 24 10 13 1020.5 1020.3 0.0
22/08:30am 13.6 7.6 -11.0 17 8.1 SE 15 19 8 10 1020.1 - 0.0
22/08:00am 10.1 4.8 -12.4 19 6.8 SE 11 13 6 7 1019.8 1019.6 0.0
22/07:30am 8.8 3.1 -12.9 20 6.4 SSE 13 17 7 9 1019.5 - 0.0
22/07:00am 7.7 2.0 -13.2 21 5.9 SSE 13 17 7 9 1019.2 1019.0 0.0
22/06:30am 8.0 2.2 -13.6 20 6.1 S 13 17 7 9 1018.9 - 0.0
22/06:00am 7.9 1.8 -13.6 20 6.1 S 15 19 8 10 1018.9 1018.7 0.0
22/05:30am 6.5 0.3 -14.2 21 5.7 S 15 17 8 9 1018.8 - 0.0
22/05:00am 5.3 -0.2 -15.2 21 5.7 S 11 13 6 7 1018.9 1018.7 0.0
22/04:30am 4.9 -0.6 -15.0 22 5.5 SSW 11 13 6 7 1018.9 - 0.0
22/04:00am 5.0 -0.5 -15.5 21 5.6 S 11 11 6 6 1019.1 1018.9 0.0
22/03:30am 5.9 -0.3 -15.3 20 5.6 SE 15 15 8 8 1019.0 - 0.0
22/03:00am 5.6 0.1 -15.6 20 5.5 SE 11 13 6 7 1019.1 1018.9 0.0
22/02:30am 6.3 0.8 -15.6 19 5.8 ESE 11 13 6 7 1019.2 - 0.0
22/02:00am 7.7 3.0 -15.1 18 6.2 SSE 7 9 4 5 1019.0 1018.8 0.0
22/01:30am 7.6 2.5 -15.2 18 6.2 SSE 9 11 5 6 1019.0 - 0.0
22/01:00am 8.0 2.9 -15.5 17 6.4 SE 9 13 5 7 1018.9 1018.7 0.0
22/12:30am 9.3 3.8 -16.0 15 6.9 S 11 13 6 7 1018.9 - 0.0
22/12:00am 9.4 3.9 -15.1 16 6.9 SSE 11 11 6 6 1019.0 1018.8 0.0
 
Date/Time
EST
Temp
°C
App
Temp
°C
Dew
Point
Rel
Hum
%
Delta-T
°C
Wind Press
QNH
hPa
Press
MSL
hPa
Rain
since 9 am
mm
Dir
 
Spd
km/h
Gust
km/h
Spd
kts
Gust
kts
21/11:30pm 10.9 5.1 -14.7 15 7.4 SSE 13 13 7 7 1019.0 - 0.0
21/11:00pm 10.8 4.9 -15.6 14 7.5 S 13 15 7 8 1019.2 1019.0 0.0
21/10:30pm 11.2 5.7 -16.2 13 7.7 S 11 13 6 7 1019.3 - 0.0
21/10:00pm 14.6 8.0 -14.4 12 8.9 SSE 17 17 9 9 1019.2 1019.0 0.0
21/09:30pm 14.7 8.5 -15.4 11 9.1 SSE 15 17 8 9 1019.0 - 0.0
21/09:00pm 14.4 8.2 -14.6 12 8.9 SSE 15 17 8 9 1018.9 1018.7 0.0
21/08:30pm 13.7 7.1 -15.1 12 8.7 S 17 17 9 9 1018.7 - 0.0
21/08:00pm 15.6 9.0 -14.7 11 9.4 S 17 19 9 10 1018.7 1018.5 0.0
21/07:30pm 15.6 9.0 -14.7 11 9.4 S 17 19 9 10 1018.4 - 0.0
21/07:00pm 16.8 11.0 -14.9 10 10.0 S 13 13 7 7 1017.9 1017.7 0.0
21/06:30pm 20.0 15.0 -13.8 9 11.4 S 9 11 5 6 1017.4 - 0.0
21/06:00pm 23.5 18.5 -14.2 7 13.1 S 9 11 5 6 1017.1 1016.9 0.0
21/05:30pm 26.3 20.2 -12.2 7 14.4 S 15 20 8 11 1017.0 - 0.0
21/05:00pm 26.9 21.1 -13.7 6 14.8 S 13 20 7 11 1016.8 1016.6 0.0
21/04:30pm 27.3 21.6 -13.4 6 15.1 S 13 20 7 11 1016.7 - 0.0
21/04:00pm 27.8 22.6 -11.1 7 15.0 S 11 20 6 11 1016.8 1016.6 0.0
21/03:30pm 27.9 22.3 -11.0 7 15.1 SSW 13 22 7 12 1017.0 - 0.0
21/03:00pm 27.6 22.5 -9.6 8 14.7 S 11 19 6 10 1016.9 1016.7 0.0
21/02:30pm 26.7 21.9 -10.2 8 14.4 S 9 20 5 11 1017.2 - 0.0
21/02:00pm 26.5 21.8 -8.9 9 14.1 SSW 9 15 5 8 1017.4 1017.2 0.0
21/01:30pm 26.0 22.1 -6.7 11 13.5 S 6 13 3 7 1017.5 - 0.0
21/01:00pm 25.3 21.9 -5.1 13 12.8 S 4 11 2 6 1017.9 1017.7 0.0
21/12:30pm 24.5 21.4 -2.9 16 12.0 W 4 9 2 5 1018.5 - 0.0
21/12:00pm 23.9 20.9 -1.8 18 11.4 N 4 7 2 4 1019.2 1019.0 0.0

Other Formats:

Comma delimited format used in spreadsheet applications
http://www.bom.gov.au/fwo/IDQ60801/IDQ60801.94337.axf

JavaScript Object Notation format (JSON) in row-major order
http://www.bom.gov.au/fwo/IDQ60801/IDQ60801.94337.json